This is the latest recevied weather packets stored in our database for station/object KFYV. If no packets are shown the sender has not sent any weather packets the latest 1 day(s).
| Time | Temp. | Humidity | Pressure | Rain* | Wind** | Luminosity | Snow |
|---|---|---|---|---|---|---|---|
| 1777974210 | 16.67° C | 93% | 1006.1 hPa | - | 1.34 m/s, 40° | - | - |
| 1777973610 | 16.67° C | 93% | 1006.1 hPa | - | 1.34 m/s, 40° | - | - |
| 1777973012 | 16.67° C | 88% | 1005.8 hPa | - | 3.58 m/s, 70° | - | - |
| 1777972410 | 16.67° C | 88% | 1005.8 hPa | - | 3.58 m/s, 70° | - | - |
| 1777971812 | 16.67° C | 88% | 1005.8 hPa | - | 2.68 m/s, 80° | - | - |
| 1777971214 | 16.67° C | 93% | 1004.4 hPa | - | 2.24 m/s, 10° | - | - |
| 1777970607 | 16.67° C | 93% | 1004.4 hPa | - | 2.24 m/s, 10° | - | - |
| 1777970013 | 17.78° C | 82% | 1005.1 hPa | - | 0 m/s | - | - |
| 1777969412 | 17.78° C | 82% | 1005.1 hPa | - | 0 m/s | - | - |
| 1777968810 | 17.78° C | 82% | 1005.1 hPa | - | 0 m/s | - | - |
| 1777968212 | 17.78° C | 77% | 1004.1 hPa | - | 0 m/s | - | - |
| 1777967609 | 17.78° C | 77% | 1005.1 hPa | - | 4.47 m/s, 160° | - | - |
| 1777967010 | 17.78° C | 77% | 1005.1 hPa | - | 4.47 m/s, 160° | - | - |
| 1777966407 | 17.78° C | 77% | 1005.1 hPa | - | 4.47 m/s, 160° | - | - |
| 1777965811 | 16.67° C | 88% | 1006.1 hPa | - | 4.02 m/s, 330° | - | - |
| 1777965207 | 16.67° C | 88% | 1006.1 hPa | - | 4.02 m/s, 330° | - | - |
| 1777964610 | 17.78° C | 77% | 1005.8 hPa | - | 2.24 m/s, 340° | - | - |
| 1777964009 | 18.89° C | 68% | 1005.1 hPa | - | 0 m/s | - | - |
| 1777963411 | 20° C | 64% | 1005.4 hPa | - | 1.34 m/s, 90° | - | - |
| 1777962807 | 20° C | 64% | 1005.4 hPa | - | 1.34 m/s, 90° | - | - |
| 1777962205 | 20° C | 64% | 1005.4 hPa | - | 1.34 m/s, 90° | - | - |
| 1777961609 | 20° C | 64% | 1005.8 hPa | - | 0 m/s | - | - |
* Rain since midnight (hover to see other rain measurements)
** Current wind speed in m/s (hover to see current wind gust speed)